Saturday, April 18, 2015, 7:30 PM EDT

KPTW, Pottstown Limerick Airport

Location: Royersford, PA, United States Lat: 40.233
Local Time: 7:30 PM EDT (23:30 GMT) Lon: -75.55
Time Zone: US/Eastern Elev: 291 ft

Show me the last for .
Show Decoded

2015-04-18 18:54 METAR KPTW 182254Z AUTO 25005KT 10SM CLR 24/04 A2994 RMK AO2 SLP136 T02440039 =
2015-04-18 17:54 METAR KPTW 182154Z AUTO 30009KT 10SM CLR 26/04 A2993 RMK AO2 SLP131 T02560044 =
2015-04-18 16:54 METAR KPTW 182054Z AUTO 25009G17KT 10SM CLR 26/04 A2992 RMK AO2 SLP129 T02610039
                 56012 =
2015-04-18 15:54 METAR KPTW 181954Z AUTO 30008KT 10SM CLR 26/06 A2993 RMK AO2 SLP130 T02560056 =
2015-04-18 14:54 METAR KPTW 181854Z AUTO 32006G19KT 10SM CLR 25/05 A2994 RMK AO2 SLP134 T02500050
                 =
2015-04-18 13:54 METAR KPTW 181754Z AUTO 30008KT 250V340 10SM CLR 25/05 A2996 RMK AO2 SLP141
                 T02500050 10250 20122 58023 =
2015-04-18 12:54 METAR KPTW 181654Z AUTO 33006KT 10SM CLR 24/06 A2998 RMK AO2 SLP149 T02390056 =
2015-04-18 11:54 METAR KPTW 181554Z AUTO 10SM CLR 22/06 A3001 RMK AO2 SLP160 T02170061 =
2015-04-18 10:54 METAR KPTW 181454Z AUTO 33003KT 10SM CLR 21/06 A3003 RMK AO2 SLP164 T02110061
                 58004 =
2015-04-18 09:54 METAR KPTW 181354Z AUTO VRB04KT 10SM CLR 19/10 A3004 RMK AO2 SLP170 T01940100 =
2015-04-18 08:54 METAR KPTW 181254Z AUTO 00000KT 10SM CLR 16/12 A3004 RMK AO2 SLP170 T01610117 =
2015-04-18 07:54 METAR KPTW 181154Z AUTO 00000KT 8SM CLR 12/12 A3004 RMK AO2 SLP169 T01220117
                 10122 20078 51014 =
2015-04-18 06:54 METAR KPTW 181054Z AUTO 00000KT 5SM BR FEW002 08/08 A3002 RMK AO2 SLP164
                 T00830083 =
2015-04-18 06:46 METAR KPTW 181046Z AUTO 00000KT 2 1/2SM BR FEW002 08/08 A3002 RMK AO2 T00830083
                 =
2015-04-18 06:42 METAR KPTW 181042Z AUTO 00000KT 1SM BR VV002 08/08 A3002 RMK AO2 T00780078 =
2015-04-18 06:36 METAR KPTW 181036Z AUTO 00000KT 1/4SM FG VV002 08/08 A3002 RMK AO2 T00780078 =
2015-04-18 06:28 METAR KPTW 181028Z AUTO 00000KT 1/2SM FG VV002 08/08 A3001 RMK AO2 T00780078 =
2015-04-18 06:26 METAR KPTW 181026Z AUTO 00000KT 1 3/4SM BR FEW002 08/08 A3001 RMK AO2 T00780078
                 =
2015-04-18 06:18 METAR KPTW 181018Z AUTO 00000KT 1 1/4SM BR FEW002 08/08 A3001 RMK AO2 T00780078
                 =
2015-04-18 06:11 METAR KPTW 181011Z AUTO 00000KT 3/4SM BR VV002 08/08 A3000 RMK AO2 VIS 1/4V2 1/2
                 T00830083 =
2015-04-18 06:02 METAR KPTW 181002Z AUTO 00000KT 1SM BR CLR 08/08 A3000 RMK AO2 T00830078 =
2015-04-18 05:54 METAR KPTW 180954Z AUTO 00000KT 3/4SM BR CLR 08/08 A3000 RMK AO2 SLP155
                 T00830083 =
2015-04-18 05:38 METAR KPTW 180938Z AUTO 00000KT 1 3/4SM BR CLR 08/08 A2999 RMK AO2 T00830083 =
2015-04-18 05:00 METAR KPTW 180900Z AUTO 00000KT 3SM BR FEW002 09/09 A2999 RMK AO2 T00890089 =
2015-04-18 04:58 METAR KPTW 180858Z AUTO 00000KT 1 1/4SM BR FEW002 09/09 A2999 RMK AO2 T00890089
                 =
2015-04-18 04:54 METAR KPTW 180854Z AUTO 00000KT 1/2SM FG VV002 09/08 A2999 RMK AO2 SLP153
                 T00890083 57002 =
2015-04-18 04:48 METAR KPTW 180848Z AUTO 00000KT 1/2SM FG VV002 09/09 A2999 RMK AO2 =
2015-04-18 04:43 METAR KPTW 180843Z AUTO 00000KT 1 3/4SM BR CLR 09/09 A2999 RMK AO2 T00940089 =
2015-04-18 03:54 METAR KPTW 180754Z AUTO 00000KT 8SM CLR 10/09 A3000 RMK AO2 SLP154 T01000094 =
2015-04-18 02:54 METAR KPTW 180654Z AUTO 00000KT 10SM CLR 11/10 A2999 RMK AO2 SLP153 T01110100 =
2015-04-18 01:54 METAR KPTW 180554Z AUTO 00000KT 10SM CLR 12/11 A3000 RMK AO2 SLP155 T01220111
                 10200 20111 51004 =
2015-04-17 23:54 METAR KPTW 180354Z AUTO 00000KT 10SM CLR 13/11 A2999 RMK AO2 SLP152 T01280111 =
2015-04-17 22:54 METAR KPTW 180254Z AUTO 00000KT 10SM CLR 14/11 A2998 RMK AO2 SLP151 T01390111
                 50009 =
2015-04-17 20:54 METAR KPTW 180054Z AUTO 00000KT 10SM FEW080 17/11 A2997 RMK AO2 SLP147 T01670106
                 =
2015-04-17 19:54 METAR KPTW 172354Z AUTO 33004KT 10SM BKN075 20/11 A2996 RMK AO2 SLP141 T02000111
                 10228 20189 53002 =

Support USWX by starting your Amazon purchase here.